sensor_id;sensor_type;location;lat;lon;timestamp;P1;durP1;ratioP1;P2;durP2;ratioP2
22205;SDS011;11272;50.104;8.754;2022-10-23T00:01:29;11.27;;;6.50;;
22205;SDS011;11272;50.104;8.754;2022-10-23T00:03:58;15.70;;;6.13;;
22205;SDS011;11272;50.104;8.754;2022-10-23T00:06:30;13.53;;;6.20;;
22205;SDS011;11272;50.104;8.754;2022-10-23T00:08:57;12.07;;;6.37;;
22205;SDS011;11272;50.104;8.754;2022-10-23T00:11:23;9.70;;;5.97;;
22205;SDS011;11272;50.104;8.754;2022-10-23T00:13:52;9.63;;;5.77;;
22205;SDS011;11272;50.104;8.754;2022-10-23T00:16:19;9.27;;;5.70;;
22205;SDS011;11272;50.104;8.754;2022-10-23T00:18:45;9.93;;;5.90;;
22205;SDS011;11272;50.104;8.754;2022-10-23T00:21:11;10.93;;;5.90;;
22205;SDS011;11272;50.104;8.754;2022-10-23T00:23:39;13.73;;;5.70;;
22205;SDS011;11272;50.104;8.754;2022-10-23T00:26:06;10.83;;;5.27;;
22205;SDS011;11272;50.104;8.754;2022-10-23T00:28:35;13.00;;;5.80;;
22205;SDS011;11272;50.104;8.754;2022-10-23T00:31:01;13.30;;;5.47;;
22205;SDS011;11272;50.104;8.754;2022-10-23T00:33:27;10.77;;;5.77;;
22205;SDS011;11272;50.104;8.754;2022-10-23T00:35:53;12.77;;;5.67;;
22205;SDS011;11272;50.104;8.754;2022-10-23T00:38:19;18.40;;;5.60;;
22205;SDS011;11272;50.104;8.754;2022-10-23T00:40:45;16.20;;;6.20;;
22205;SDS011;11272;50.104;8.754;2022-10-23T00:43:18;11.37;;;5.40;;
22205;SDS011;11272;50.104;8.754;2022-10-23T00:45:45;8.93;;;5.57;;
22205;SDS011;11272;50.104;8.754;2022-10-23T00:48:11;11.33;;;6.20;;
22205;SDS011;11272;50.104;8.754;2022-10-23T00:50:37;9.23;;;5.77;;
22205;SDS011;11272;50.104;8.754;2022-10-23T00:53:03;9.43;;;5.63;;
22205;SDS011;11272;50.104;8.754;2022-10-23T00:55:29;8.33;;;5.57;;
22205;SDS011;11272;50.104;8.754;2022-10-23T00:57:56;11.93;;;6.07;;
22205;SDS011;11272;50.104;8.754;2022-10-23T01:03:11;10.40;;;6.33;;
22205;SDS011;11272;50.104;8.754;2022-10-23T01:05:48;11.23;;;6.10;;
22205;SDS011;11272;50.104;8.754;2022-10-23T01:08:22;15.40;;;6.57;;
22205;SDS011;11272;50.104;8.754;2022-10-23T01:13:47;15.43;;;6.60;;
22205;SDS011;11272;50.104;8.754;2022-10-23T01:16:49;13.17;;;6.37;;
22205;SDS011;11272;50.104;8.754;2022-10-23T01:22:17;8.60;;;5.27;;
22205;SDS011;11272;50.104;8.754;2022-10-23T01:27:21;15.80;;;5.87;;
22205;SDS011;11272;50.104;8.754;2022-10-23T01:35:19;11.47;;;5.40;;
22205;SDS011;11272;50.104;8.754;2022-10-23T01:40:49;12.47;;;5.80;;
22205;SDS011;11272;50.104;8.754;2022-10-23T01:43:24;11.10;;;5.83;;
22205;SDS011;11272;50.104;8.754;2022-10-23T01:45:59;12.37;;;6.07;;
22205;SDS011;11272;50.104;8.754;2022-10-23T01:48:28;11.57;;;5.80;;
22205;SDS011;11272;50.104;8.754;2022-10-23T01:50:56;12.30;;;5.73;;
22205;SDS011;11272;50.104;8.754;2022-10-23T01:53:25;16.80;;;5.87;;
22205;SDS011;11272;50.104;8.754;2022-10-23T01:55:55;10.63;;;5.60;;
22205;SDS011;11272;50.104;8.754;2022-10-23T01:58:23;12.10;;;5.63;;
22205;SDS011;11272;50.104;8.754;2022-10-23T02:00:53;11.80;;;5.57;;
22205;SDS011;11272;50.104;8.754;2022-10-23T02:03:23;14.43;;;5.77;;
22205;SDS011;11272;50.104;8.754;2022-10-23T02:05:53;8.13;;;5.27;;
22205;SDS011;11272;50.104;8.754;2022-10-23T02:08:19;9.33;;;5.53;;
22205;SDS011;11272;50.104;8.754;2022-10-23T02:19:04;12.53;;;5.57;;
22205;SDS011;11272;50.104;8.754;2022-10-23T02:21:36;13.03;;;5.40;;
22205;SDS011;11272;50.104;8.754;2022-10-23T02:24:17;14.60;;;5.17;;
22205;SDS011;11272;50.104;8.754;2022-10-23T02:26:52;15.40;;;5.63;;
22205;SDS011;11272;50.104;8.754;2022-10-23T02:29:26;8.80;;;5.47;;
22205;SDS011;11272;50.104;8.754;2022-10-23T02:32:20;8.93;;;5.10;;
22205;SDS011;11272;50.104;8.754;2022-10-23T02:34:47;11.07;;;5.43;;
22205;SDS011;11272;50.104;8.754;2022-10-23T02:37:13;9.97;;;4.90;;
22205;SDS011;11272;50.104;8.754;2022-10-23T02:39:41;9.90;;;4.77;;
22205;SDS011;11272;50.104;8.754;2022-10-23T02:42:10;10.03;;;5.03;;
22205;SDS011;11272;50.104;8.754;2022-10-23T02:47:20;9.93;;;5.37;;
22205;SDS011;11272;50.104;8.754;2022-10-23T02:52:40;8.57;;;4.40;;
22205;SDS011;11272;50.104;8.754;2022-10-23T03:00:36;14.00;;;4.80;;
22205;SDS011;11272;50.104;8.754;2022-10-23T03:03:24;13.43;;;4.47;;
22205;SDS011;11272;50.104;8.754;2022-10-23T03:05:54;9.47;;;4.77;;
22205;SDS011;11272;50.104;8.754;2022-10-23T03:08:20;8.43;;;3.93;;
22205;SDS011;11272;50.104;8.754;2022-10-23T03:10:45;8.43;;;4.37;;
22205;SDS011;11272;50.104;8.754;2022-10-23T03:13:11;6.87;;;4.40;;
22205;SDS011;11272;50.104;8.754;2022-10-23T03:15:41;9.67;;;4.70;;
22205;SDS011;11272;50.104;8.754;2022-10-23T03:18:11;9.03;;;4.27;;
22205;SDS011;11272;50.104;8.754;2022-10-23T03:20:37;8.90;;;4.27;;
22205;SDS011;11272;50.104;8.754;2022-10-23T03:23:03;11.10;;;4.90;;
22205;SDS011;11272;50.104;8.754;2022-10-23T03:25:29;9.30;;;4.13;;
22205;SDS011;11272;50.104;8.754;2022-10-23T03:27:56;9.87;;;4.23;;
22205;SDS011;11272;50.104;8.754;2022-10-23T03:30:21;10.07;;;4.30;;
22205;SDS011;11272;50.104;8.754;2022-10-23T03:32:52;8.37;;;4.50;;
22205;SDS011;11272;50.104;8.754;2022-10-23T03:35:17;11.33;;;4.10;;
22205;SDS011;11272;50.104;8.754;2022-10-23T03:37:43;7.60;;;4.10;;
22205;SDS011;11272;50.104;8.754;2022-10-23T03:40:09;10.80;;;3.83;;
22205;SDS011;11272;50.104;8.754;2022-10-23T03:42:35;10.73;;;4.30;;
22205;SDS011;11272;50.104;8.754;2022-10-23T03:45:00;7.70;;;3.60;;
22205;SDS011;11272;50.104;8.754;2022-10-23T03:47:26;6.43;;;3.63;;
22205;SDS011;11272;50.104;8.754;2022-10-23T03:49:51;9.30;;;4.03;;
22205;SDS011;11272;50.104;8.754;2022-10-23T03:52:17;7.60;;;4.60;;
22205;SDS011;11272;50.104;8.754;2022-10-23T03:54:42;8.20;;;4.00;;
22205;SDS011;11272;50.104;8.754;2022-10-23T03:57:08;7.33;;;3.60;;
22205;SDS011;11272;50.104;8.754;2022-10-23T03:59:34;8.23;;;4.07;;
22205;SDS011;11272;50.104;8.754;2022-10-23T04:01:59;9.40;;;4.00;;
22205;SDS011;11272;50.104;8.754;2022-10-23T04:04:25;5.20;;;3.40;;
22205;SDS011;11272;50.104;8.754;2022-10-23T04:06:52;8.67;;;3.70;;
22205;SDS011;11272;50.104;8.754;2022-10-23T04:09:18;8.07;;;3.70;;
22205;SDS011;11272;50.104;8.754;2022-10-23T04:11:44;10.77;;;3.97;;
22205;SDS011;11272;50.104;8.754;2022-10-23T04:14:10;5.30;;;3.30;;
22205;SDS011;11272;50.104;8.754;2022-10-23T04:16:37;7.03;;;3.70;;
22205;SDS011;11272;50.104;8.754;2022-10-23T04:19:04;8.77;;;3.67;;
22205;SDS011;11272;50.104;8.754;2022-10-23T04:21:30;5.07;;;3.70;;
22205;SDS011;11272;50.104;8.754;2022-10-23T04:23:57;6.43;;;3.50;;
22205;SDS011;11272;50.104;8.754;2022-10-23T04:26:22;9.83;;;4.00;;
22205;SDS011;11272;50.104;8.754;2022-10-23T04:28:49;9.23;;;3.40;;
22205;SDS011;11272;50.104;8.754;2022-10-23T04:31:15;9.90;;;3.87;;
22205;SDS011;11272;50.104;8.754;2022-10-23T04:33:42;8.60;;;3.73;;
22205;SDS011;11272;50.104;8.754;2022-10-23T04:36:07;9.57;;;3.83;;
22205;SDS011;11272;50.104;8.754;2022-10-23T04:38:34;11.23;;;3.30;;
22205;SDS011;11272;50.104;8.754;2022-10-23T04:41:00;8.03;;;3.47;;
22205;SDS011;11272;50.104;8.754;2022-10-23T04:43:27;12.00;;;4.00;;
22205;SDS011;11272;50.104;8.754;2022-10-23T04:45:52;6.53;;;3.90;;
22205;SDS011;11272;50.104;8.754;2022-10-23T04:48:18;7.47;;;3.80;;
22205;SDS011;11272;50.104;8.754;2022-10-23T04:51:13;6.43;;;3.70;;
22205;SDS011;11272;50.104;8.754;2022-10-23T04:53:51;6.03;;;3.63;;
22205;SDS011;11272;50.104;8.754;2022-10-23T04:56:40;7.43;;;3.57;;
22205;SDS011;11272;50.104;8.754;2022-10-23T04:59:11;8.10;;;3.80;;
22205;SDS011;11272;50.104;8.754;2022-10-23T05:01:38;4.67;;;3.60;;
22205;SDS011;11272;50.104;8.754;2022-10-23T05:04:05;6.33;;;3.80;;
22205;SDS011;11272;50.104;8.754;2022-10-23T05:06:37;9.00;;;3.73;;
22205;SDS011;11272;50.104;8.754;2022-10-23T05:09:21;9.20;;;3.77;;
22205;SDS011;11272;50.104;8.754;2022-10-23T05:12:15;5.67;;;3.83;;
22205;SDS011;11272;50.104;8.754;2022-10-23T05:14:42;6.43;;;3.13;;
22205;SDS011;11272;50.104;8.754;2022-10-23T05:17:08;8.73;;;3.53;;
22205;SDS011;11272;50.104;8.754;2022-10-23T05:19:41;11.13;;;3.20;;
22205;SDS011;11272;50.104;8.754;2022-10-23T05:22:09;4.53;;;3.10;;
22205;SDS011;11272;50.104;8.754;2022-10-23T05:24:49;4.97;;;3.50;;
22205;SDS011;11272;50.104;8.754;2022-10-23T05:27:18;8.93;;;3.33;;
22205;SDS011;11272;50.104;8.754;2022-10-23T05:29:43;6.87;;;3.07;;
22205;SDS011;11272;50.104;8.754;2022-10-23T05:32:09;6.77;;;3.30;;
22205;SDS011;11272;50.104;8.754;2022-10-23T05:34:38;6.77;;;3.07;;
22205;SDS011;11272;50.104;8.754;2022-10-23T05:37:08;5.50;;;3.13;;
22205;SDS011;11272;50.104;8.754;2022-10-23T05:39:39;7.50;;;3.20;;
22205;SDS011;11272;50.104;8.754;2022-10-23T05:42:10;7.57;;;3.37;;
22205;SDS011;11272;50.104;8.754;2022-10-23T05:44:36;9.07;;;4.97;;
22205;SDS011;11272;50.104;8.754;2022-10-23T05:47:20;9.63;;;2.87;;
22205;SDS011;11272;50.104;8.754;2022-10-23T05:50:06;5.63;;;3.07;;
22205;SDS011;11272;50.104;8.754;2022-10-23T05:52:38;7.53;;;3.30;;
22205;SDS011;11272;50.104;8.754;2022-10-23T05:55:12;4.60;;;2.97;;
22205;SDS011;11272;50.104;8.754;2022-10-23T05:57:48;7.17;;;3.20;;
22205;SDS011;11272;50.104;8.754;2022-10-23T06:00:19;7.50;;;3.80;;
22205;SDS011;11272;50.104;8.754;2022-10-23T06:02:53;5.67;;;2.97;;
22205;SDS011;11272;50.104;8.754;2022-10-23T06:05:29;5.53;;;3.20;;
22205;SDS011;11272;50.104;8.754;2022-10-23T06:08:15;5.80;;;3.40;;
22205;SDS011;11272;50.104;8.754;2022-10-23T06:10:41;6.50;;;3.33;;
22205;SDS011;11272;50.104;8.754;2022-10-23T06:13:09;10.13;;;3.17;;
22205;SDS011;11272;50.104;8.754;2022-10-23T06:15:35;6.93;;;2.63;;
22205;SDS011;11272;50.104;8.754;2022-10-23T06:18:06;8.90;;;3.10;;
22205;SDS011;11272;50.104;8.754;2022-10-23T06:20:35;6.37;;;3.30;;
22205;SDS011;11272;50.104;8.754;2022-10-23T06:23:08;5.90;;;2.87;;
22205;SDS011;11272;50.104;8.754;2022-10-23T06:25:52;5.83;;;3.00;;
22205;SDS011;11272;50.104;8.754;2022-10-23T06:28:28;7.40;;;3.20;;
22205;SDS011;11272;50.104;8.754;2022-10-23T06:30:54;4.70;;;2.80;;
22205;SDS011;11272;50.104;8.754;2022-10-23T06:33:20;6.23;;;3.17;;
22205;SDS011;11272;50.104;8.754;2022-10-23T06:35:46;6.00;;;3.67;;
22205;SDS011;11272;50.104;8.754;2022-10-23T06:38:12;8.10;;;2.97;;
22205;SDS011;11272;50.104;8.754;2022-10-23T06:40:51;6.60;;;3.67;;
22205;SDS011;11272;50.104;8.754;2022-10-23T06:43:28;5.47;;;3.33;;
22205;SDS011;11272;50.104;8.754;2022-10-23T06:46:14;6.27;;;3.20;;
22205;SDS011;11272;50.104;8.754;2022-10-23T06:48:58;5.37;;;3.13;;
22205;SDS011;11272;50.104;8.754;2022-10-23T06:51:29;7.73;;;2.77;;
22205;SDS011;11272;50.104;8.754;2022-10-23T06:53:55;6.03;;;3.23;;
22205;SDS011;11272;50.104;8.754;2022-10-23T06:56:53;4.90;;;2.87;;
22205;SDS011;11272;50.104;8.754;2022-10-23T06:59:27;3.80;;;2.67;;
22205;SDS011;11272;50.104;8.754;2022-10-23T07:01:53;5.97;;;3.20;;
22205;SDS011;11272;50.104;8.754;2022-10-23T07:04:21;6.37;;;3.30;;
22205;SDS011;11272;50.104;8.754;2022-10-23T07:06:47;4.43;;;3.10;;
22205;SDS011;11272;50.104;8.754;2022-10-23T07:09:13;6.10;;;3.13;;
22205;SDS011;11272;50.104;8.754;2022-10-23T07:11:50;8.20;;;3.17;;
22205;SDS011;11272;50.104;8.754;2022-10-23T07:14:17;5.43;;;3.20;;
22205;SDS011;11272;50.104;8.754;2022-10-23T07:16:43;6.00;;;3.10;;
22205;SDS011;11272;50.104;8.754;2022-10-23T07:19:09;9.93;;;3.83;;
22205;SDS011;11272;50.104;8.754;2022-10-23T07:21:53;7.20;;;3.27;;
22205;SDS011;11272;50.104;8.754;2022-10-23T07:24:37;9.67;;;3.70;;
22205;SDS011;11272;50.104;8.754;2022-10-23T07:27:14;7.67;;;3.40;;
22205;SDS011;11272;50.104;8.754;2022-10-23T07:29:40;8.53;;;3.90;;
22205;SDS011;11272;50.104;8.754;2022-10-23T07:32:06;5.97;;;3.30;;
22205;SDS011;11272;50.104;8.754;2022-10-23T07:34:52;5.33;;;2.80;;
22205;SDS011;11272;50.104;8.754;2022-10-23T07:37:23;7.83;;;2.90;;
22205;SDS011;11272;50.104;8.754;2022-10-23T07:39:49;6.30;;;2.80;;
22205;SDS011;11272;50.104;8.754;2022-10-23T07:42:16;8.63;;;3.10;;
22205;SDS011;11272;50.104;8.754;2022-10-23T07:44:42;5.60;;;3.03;;
22205;SDS011;11272;50.104;8.754;2022-10-23T07:47:08;4.07;;;2.50;;
22205;SDS011;11272;50.104;8.754;2022-10-23T07:49:42;4.37;;;2.60;;
22205;SDS011;11272;50.104;8.754;2022-10-23T07:52:08;5.87;;;2.80;;
22205;SDS011;11272;50.104;8.754;2022-10-23T07:54:54;5.07;;;3.03;;
22205;SDS011;11272;50.104;8.754;2022-10-23T07:57:20;3.47;;;2.77;;
22205;SDS011;11272;50.104;8.754;2022-10-23T07:59:54;3.87;;;2.67;;
22205;SDS011;11272;50.104;8.754;2022-10-23T08:02:21;3.27;;;2.40;;
22205;SDS011;11272;50.104;8.754;2022-10-23T08:04:48;5.77;;;2.50;;
22205;SDS011;11272;50.104;8.754;2022-10-23T08:07:40;2.90;;;2.27;;
22205;SDS011;11272;50.104;8.754;2022-10-23T08:10:06;5.33;;;2.80;;
22205;SDS011;11272;50.104;8.754;2022-10-23T08:12:35;5.07;;;2.50;;
22205;SDS011;11272;50.104;8.754;2022-10-23T08:15:03;4.17;;;2.73;;
22205;SDS011;11272;50.104;8.754;2022-10-23T08:17:38;4.57;;;2.43;;
22205;SDS011;11272;50.104;8.754;2022-10-23T08:20:15;3.77;;;2.23;;
22205;SDS011;11272;50.104;8.754;2022-10-23T08:22:43;4.17;;;2.30;;
22205;SDS011;11272;50.104;8.754;2022-10-23T08:25:13;4.30;;;2.50;;
22205;SDS011;11272;50.104;8.754;2022-10-23T08:27:39;3.37;;;2.23;;
22205;SDS011;11272;50.104;8.754;2022-10-23T08:30:05;3.23;;;2.50;;
22205;SDS011;11272;50.104;8.754;2022-10-23T08:32:31;4.73;;;2.50;;
22205;SDS011;11272;50.104;8.754;2022-10-23T08:35:01;3.03;;;2.50;;
22205;SDS011;11272;50.104;8.754;2022-10-23T08:37:29;5.33;;;2.77;;
22205;SDS011;11272;50.104;8.754;2022-10-23T08:39:55;3.33;;;2.37;;
22205;SDS011;11272;50.104;8.754;2022-10-23T08:42:41;4.90;;;2.50;;
22205;SDS011;11272;50.104;8.754;2022-10-23T08:48:44;3.90;;;2.43;;
22205;SDS011;11272;50.104;8.754;2022-10-23T08:51:38;4.03;;;2.67;;
22205;SDS011;11272;50.104;8.754;2022-10-23T08:56:46;10.63;;;2.60;;
22205;SDS011;11272;50.104;8.754;2022-10-23T09:00:15;9.30;;;2.53;;
22205;SDS011;11272;50.104;8.754;2022-10-23T09:02:15;3.00;;;2.37;;
22205;SDS011;11272;50.104;8.754;2022-10-23T09:04:46;4.13;;;2.20;;
22205;SDS011;11272;50.104;8.754;2022-10-23T09:12:41;4.53;;;2.70;;
22205;SDS011;11272;50.104;8.754;2022-10-23T09:18:16;5.73;;;3.20;;
22205;SDS011;11272;50.104;8.754;2022-10-23T09:20:45;4.30;;;3.10;;
22205;SDS011;11272;50.104;8.754;2022-10-23T09:23:14;3.77;;;2.20;;
22205;SDS011;11272;50.104;8.754;2022-10-23T09:25:46;3.60;;;2.50;;
22205;SDS011;11272;50.104;8.754;2022-10-23T09:28:24;7.90;;;2.40;;
22205;SDS011;11272;50.104;8.754;2022-10-23T09:31:04;11.57;;;3.07;;
22205;SDS011;11272;50.104;8.754;2022-10-23T09:33:34;4.63;;;2.40;;
22205;SDS011;11272;50.104;8.754;2022-10-23T09:38:44;4.37;;;2.53;;
22205;SDS011;11272;50.104;8.754;2022-10-23T09:41:13;3.50;;;2.50;;
22205;SDS011;11272;50.104;8.754;2022-10-23T09:46:39;4.47;;;2.63;;
22205;SDS011;11272;50.104;8.754;2022-10-23T09:49:16;4.47;;;2.83;;
22205;SDS011;11272;50.104;8.754;2022-10-23T09:51:51;5.30;;;2.60;;
22205;SDS011;11272;50.104;8.754;2022-10-23T09:54:29;7.10;;;2.57;;
22205;SDS011;11272;50.104;8.754;2022-10-23T09:56:57;4.97;;;2.60;;
22205;SDS011;11272;50.104;8.754;2022-10-23T09:59:39;4.03;;;2.40;;
22205;SDS011;11272;50.104;8.754;2022-10-23T10:05:30;3.97;;;2.53;;
22205;SDS011;11272;50.104;8.754;2022-10-23T10:10:51;5.23;;;2.23;;
22205;SDS011;11272;50.104;8.754;2022-10-23T10:15:56;4.67;;;2.50;;
22205;SDS011;11272;50.104;8.754;2022-10-23T10:21:03;2.40;;;2.10;;
22205;SDS011;11272;50.104;8.754;2022-10-23T10:37:23;5.83;;;2.53;;
22205;SDS011;11272;50.104;8.754;2022-10-23T10:40:15;2.63;;;1.60;;
22205;SDS011;11272;50.104;8.754;2022-10-23T10:48:17;2.80;;;1.70;;
22205;SDS011;11272;50.104;8.754;2022-10-23T10:51:20;5.33;;;1.87;;
22205;SDS011;11272;50.104;8.754;2022-10-23T10:53:51;3.87;;;2.30;;
22205;SDS011;11272;50.104;8.754;2022-10-23T10:56:19;4.83;;;2.50;;
22205;SDS011;11272;50.104;8.754;2022-10-23T10:58:50;4.07;;;2.30;;
22205;SDS011;11272;50.104;8.754;2022-10-23T11:01:34;3.47;;;2.47;;
22205;SDS011;11272;50.104;8.754;2022-10-23T11:06:28;4.57;;;2.70;;
22205;SDS011;11272;50.104;8.754;2022-10-23T11:08:59;4.87;;;2.60;;
22205;SDS011;11272;50.104;8.754;2022-10-23T11:11:35;6.27;;;2.80;;
22205;SDS011;11272;50.104;8.754;2022-10-23T11:14:04;4.13;;;2.60;;
22205;SDS011;11272;50.104;8.754;2022-10-23T11:16:38;3.60;;;2.77;;
22205;SDS011;11272;50.104;8.754;2022-10-23T11:19:16;6.53;;;3.40;;
22205;SDS011;11272;50.104;8.754;2022-10-23T11:21:51;5.60;;;3.00;;
22205;SDS011;11272;50.104;8.754;2022-10-23T11:30:18;4.10;;;2.40;;
22205;SDS011;11272;50.104;8.754;2022-10-23T11:33:14;5.03;;;2.80;;
22205;SDS011;11272;50.104;8.754;2022-10-23T11:36:05;4.00;;;2.50;;
22205;SDS011;11272;50.104;8.754;2022-10-23T11:38:38;3.90;;;2.50;;
22205;SDS011;11272;50.104;8.754;2022-10-23T11:41:15;3.97;;;2.60;;
22205;SDS011;11272;50.104;8.754;2022-10-23T11:43:48;4.63;;;2.60;;
22205;SDS011;11272;50.104;8.754;2022-10-23T11:46:14;3.77;;;2.53;;
22205;SDS011;11272;50.104;8.754;2022-10-23T11:48:54;3.37;;;2.40;;
22205;SDS011;11272;50.104;8.754;2022-10-23T11:51:34;3.57;;;2.47;;
22205;SDS011;11272;50.104;8.754;2022-10-23T11:56:36;3.03;;;2.37;;
22205;SDS011;11272;50.104;8.754;2022-10-23T11:59:37;3.13;;;2.40;;
22205;SDS011;11272;50.104;8.754;2022-10-23T12:01:57;3.57;;;2.57;;
22205;SDS011;11272;50.104;8.754;2022-10-23T12:07:35;5.90;;;3.00;;
22205;SDS011;11272;50.104;8.754;2022-10-23T12:10:06;3.73;;;2.20;;
22205;SDS011;11272;50.104;8.754;2022-10-23T12:12:59;2.53;;;1.77;;
22205;SDS011;11272;50.104;8.754;2022-10-23T12:15:51;3.03;;;1.87;;
22205;SDS011;11272;50.104;8.754;2022-10-23T12:18:17;2.33;;;1.60;;
22205;SDS011;11272;50.104;8.754;2022-10-23T12:20:46;1.73;;;1.60;;
22205;SDS011;11272;50.104;8.754;2022-10-23T12:28:39;2.38;;;1.55;;
22205;SDS011;11272;50.104;8.754;2022-10-23T12:41:54;5.03;;;1.60;;
22205;SDS011;11272;50.104;8.754;2022-10-23T12:44:20;3.67;;;1.67;;
22205;SDS011;11272;50.104;8.754;2022-10-23T12:46:50;3.37;;;1.37;;
22205;SDS011;11272;50.104;8.754;2022-10-23T12:49:21;2.20;;;1.60;;
22205;SDS011;11272;50.104;8.754;2022-10-23T12:54:21;1.93;;;1.30;;
22205;SDS011;11272;50.104;8.754;2022-10-23T12:56:47;1.80;;;1.50;;
22205;SDS011;11272;50.104;8.754;2022-10-23T12:59:17;1.53;;;1.43;;
22205;SDS011;11272;50.104;8.754;2022-10-23T13:01:45;4.57;;;1.80;;
22205;SDS011;11272;50.104;8.754;2022-10-23T13:04:27;2.13;;;1.60;;
22205;SDS011;11272;50.104;8.754;2022-10-23T13:06:56;2.37;;;1.80;;
22205;SDS011;11272;50.104;8.754;2022-10-23T13:09:30;1.57;;;1.40;;
22205;SDS011;11272;50.104;8.754;2022-10-23T13:12:35;2.17;;;1.40;;
22205;SDS011;11272;50.104;8.754;2022-10-23T13:17:42;3.57;;;1.77;;
22205;SDS011;11272;50.104;8.754;2022-10-23T13:22:53;1.60;;;1.27;;
22205;SDS011;11272;50.104;8.754;2022-10-23T13:25:23;2.23;;;1.80;;
22205;SDS011;11272;50.104;8.754;2022-10-23T13:27:49;1.90;;;1.60;;
22205;SDS011;11272;50.104;8.754;2022-10-23T13:30:26;2.63;;;1.77;;
22205;SDS011;11272;50.104;8.754;2022-10-23T13:33:23;3.73;;;1.63;;
22205;SDS011;11272;50.104;8.754;2022-10-23T13:36:33;2.30;;;1.60;;
22205;SDS011;11272;50.104;8.754;2022-10-23T13:38:46;1.77;;;1.47;;
22205;SDS011;11272;50.104;8.754;2022-10-23T13:41:27;4.50;;;1.80;;
22205;SDS011;11272;50.104;8.754;2022-10-23T13:44:04;2.30;;;1.57;;
22205;SDS011;11272;50.104;8.754;2022-10-23T13:46:30;3.10;;;1.70;;
22205;SDS011;11272;50.104;8.754;2022-10-23T13:48:56;3.10;;;1.70;;
22205;SDS011;11272;50.104;8.754;2022-10-23T13:51:26;3.77;;;1.70;;
22205;SDS011;11272;50.104;8.754;2022-10-23T13:53:54;4.30;;;1.80;;
22205;SDS011;11272;50.104;8.754;2022-10-23T13:56:21;5.13;;;2.00;;
22205;SDS011;11272;50.104;8.754;2022-10-23T13:58:49;2.77;;;1.50;;
22205;SDS011;11272;50.104;8.754;2022-10-23T14:03:48;3.20;;;2.00;;
22205;SDS011;11272;50.104;8.754;2022-10-23T14:06:15;3.27;;;1.77;;
22205;SDS011;11272;50.104;8.754;2022-10-23T14:08:41;3.17;;;1.63;;
22205;SDS011;11272;50.104;8.754;2022-10-23T14:11:08;7.53;;;1.90;;
22205;SDS011;11272;50.104;8.754;2022-10-23T14:13:34;3.70;;;1.93;;
22205;SDS011;11272;50.104;8.754;2022-10-23T14:16:00;2.10;;;1.67;;
22205;SDS011;11272;50.104;8.754;2022-10-23T14:18:25;2.50;;;1.80;;
22205;SDS011;11272;50.104;8.754;2022-10-23T14:20:51;3.00;;;1.73;;
22205;SDS011;11272;50.104;8.754;2022-10-23T14:23:16;2.93;;;1.93;;
22205;SDS011;11272;50.104;8.754;2022-10-23T14:25:42;2.90;;;1.70;;
22205;SDS011;11272;50.104;8.754;2022-10-23T14:28:09;2.10;;;1.43;;
22205;SDS011;11272;50.104;8.754;2022-10-23T14:30:35;2.47;;;1.67;;
22205;SDS011;11272;50.104;8.754;2022-10-23T14:33:01;3.83;;;1.40;;
22205;SDS011;11272;50.104;8.754;2022-10-23T14:35:27;1.83;;;1.40;;
22205;SDS011;11272;50.104;8.754;2022-10-23T14:37:53;2.43;;;1.70;;
22205;SDS011;11272;50.104;8.754;2022-10-23T14:40:18;3.80;;;1.50;;
22205;SDS011;11272;50.104;8.754;2022-10-23T14:42:44;2.03;;;1.57;;
22205;SDS011;11272;50.104;8.754;2022-10-23T14:45:10;3.33;;;1.40;;
22205;SDS011;11272;50.104;8.754;2022-10-23T14:47:36;1.97;;;1.47;;
22205;SDS011;11272;50.104;8.754;2022-10-23T14:50:02;1.43;;;1.33;;
22205;SDS011;11272;50.104;8.754;2022-10-23T14:52:28;2.00;;;1.53;;
22205;SDS011;11272;50.104;8.754;2022-10-23T14:54:55;3.80;;;1.80;;
22205;SDS011;11272;50.104;8.754;2022-10-23T14:57:20;1.53;;;1.40;;
22205;SDS011;11272;50.104;8.754;2022-10-23T14:59:47;1.80;;;1.40;;
22205;SDS011;11272;50.104;8.754;2022-10-23T15:02:13;2.70;;;1.57;;
22205;SDS011;11272;50.104;8.754;2022-10-23T15:04:40;3.20;;;1.40;;
22205;SDS011;11272;50.104;8.754;2022-10-23T15:07:07;1.47;;;1.30;;
22205;SDS011;11272;50.104;8.754;2022-10-23T15:09:33;5.17;;;1.70;;
22205;SDS011;11272;50.104;8.754;2022-10-23T15:12:01;3.43;;;1.40;;
22205;SDS011;11272;50.104;8.754;2022-10-23T15:14:28;3.67;;;1.80;;
22205;SDS011;11272;50.104;8.754;2022-10-23T15:16:54;2.40;;;1.40;;
22205;SDS011;11272;50.104;8.754;2022-10-23T15:19:19;3.17;;;1.57;;
22205;SDS011;11272;50.104;8.754;2022-10-23T15:21:45;3.87;;;1.67;;
22205;SDS011;11272;50.104;8.754;2022-10-23T15:24:11;2.10;;;1.70;;
22205;SDS011;11272;50.104;8.754;2022-10-23T15:26:38;3.73;;;1.77;;
22205;SDS011;11272;50.104;8.754;2022-10-23T15:29:07;3.47;;;1.70;;
22205;SDS011;11272;50.104;8.754;2022-10-23T15:34:12;3.27;;;1.80;;
22205;SDS011;11272;50.104;8.754;2022-10-23T15:36:46;4.27;;;2.00;;
22205;SDS011;11272;50.104;8.754;2022-10-23T15:39:16;4.20;;;1.87;;
22205;SDS011;11272;50.104;8.754;2022-10-23T15:41:45;2.50;;;1.63;;
22205;SDS011;11272;50.104;8.754;2022-10-23T15:44:12;3.63;;;2.13;;
22205;SDS011;11272;50.104;8.754;2022-10-23T15:46:41;2.67;;;2.00;;
22205;SDS011;11272;50.104;8.754;2022-10-23T15:49:06;2.97;;;2.07;;
22205;SDS011;11272;50.104;8.754;2022-10-23T15:51:32;2.97;;;1.70;;
22205;SDS011;11272;50.104;8.754;2022-10-23T15:54:00;1.87;;;1.57;;
22205;SDS011;11272;50.104;8.754;2022-10-23T15:56:25;2.33;;;1.50;;
22205;SDS011;11272;50.104;8.754;2022-10-23T15:58:51;3.17;;;1.80;;
22205;SDS011;11272;50.104;8.754;2022-10-23T16:01:17;3.40;;;1.90;;
22205;SDS011;11272;50.104;8.754;2022-10-23T16:03:43;4.33;;;1.60;;
22205;SDS011;11272;50.104;8.754;2022-10-23T16:06:09;4.03;;;1.67;;
22205;SDS011;11272;50.104;8.754;2022-10-23T16:08:37;2.83;;;1.60;;
22205;SDS011;11272;50.104;8.754;2022-10-23T16:11:03;2.57;;;1.50;;
22205;SDS011;11272;50.104;8.754;2022-10-23T16:13:37;4.07;;;1.80;;
22205;SDS011;11272;50.104;8.754;2022-10-23T16:16:03;3.60;;;2.03;;
22205;SDS011;11272;50.104;8.754;2022-10-23T16:18:29;3.60;;;1.50;;
22205;SDS011;11272;50.104;8.754;2022-10-23T16:20:54;2.20;;;1.40;;
22205;SDS011;11272;50.104;8.754;2022-10-23T16:23:19;1.37;;;1.20;;
22205;SDS011;11272;50.104;8.754;2022-10-23T16:25:46;2.70;;;1.63;;
22205;SDS011;11272;50.104;8.754;2022-10-23T16:28:11;5.43;;;1.70;;
22205;SDS011;11272;50.104;8.754;2022-10-23T16:30:41;1.60;;;1.50;;
22205;SDS011;11272;50.104;8.754;2022-10-23T16:33:07;1.77;;;1.47;;
22205;SDS011;11272;50.104;8.754;2022-10-23T16:35:33;2.93;;;1.40;;
22205;SDS011;11272;50.104;8.754;2022-10-23T16:38:08;1.63;;;1.13;;
22205;SDS011;11272;50.104;8.754;2022-10-23T16:40:33;1.80;;;1.40;;
22205;SDS011;11272;50.104;8.754;2022-10-23T16:43:17;2.67;;;1.50;;
22205;SDS011;11272;50.104;8.754;2022-10-23T16:48:36;2.90;;;1.50;;
22205;SDS011;11272;50.104;8.754;2022-10-23T16:51:05;6.03;;;1.53;;
22205;SDS011;11272;50.104;8.754;2022-10-23T16:53:33;8.07;;;3.00;;
22205;SDS011;11272;50.104;8.754;2022-10-23T16:56:01;5.27;;;3.00;;
22205;SDS011;11272;50.104;8.754;2022-10-23T16:58:28;3.20;;;1.90;;
22205;SDS011;11272;50.104;8.754;2022-10-23T17:00:54;2.33;;;1.97;;
22205;SDS011;11272;50.104;8.754;2022-10-23T17:03:27;4.20;;;2.30;;
22205;SDS011;11272;50.104;8.754;2022-10-23T17:06:00;3.17;;;1.90;;
22205;SDS011;11272;50.104;8.754;2022-10-23T17:08:27;4.23;;;1.97;;
22205;SDS011;11272;50.104;8.754;2022-10-23T17:11:03;4.27;;;2.37;;
22205;SDS011;11272;50.104;8.754;2022-10-23T17:13:29;3.23;;;2.17;;
22205;SDS011;11272;50.104;8.754;2022-10-23T17:16:03;4.87;;;2.20;;
22205;SDS011;11272;50.104;8.754;2022-10-23T17:18:31;5.40;;;2.43;;
22205;SDS011;11272;50.104;8.754;2022-10-23T17:21:03;4.57;;;2.70;;
22205;SDS011;11272;50.104;8.754;2022-10-23T17:23:29;3.87;;;2.17;;